Agadir, Maroc

19:14 WET le 31 octobre 2014 (GMT +0000)
Al-Massira | Change Station
CLOSE
Current Station
Aéroport
Location: Agadir Al Massira,
Altitude: 243 ft
Stations météo à proximité

Alt. 243 ft 30.33 °N, 9.40 °W | Updated 14 minutes ago

Clear
Ciel dégagé
82 ° F
Paraît 82 ° F
N
5
Vent Variable Vent de NNO

Aujourd'hui
Haut(e) -- | Bas -- ° F
--% Risque de précip.
Hier
Haut(e) -- | Bas -- ° F
Precip. -- pouce
6:51 AM 5:51 PM
Premier quartier, 58% visible
Pression 29.98 pouce
Visibilité -9999.0 Miles terrestres
Nuages
Point de rosée 36 ° F
Humidité 19%
Précipitations 0.00 pouce
Profondeur de la couche neigeuse Non disponible.
UV Non disponible.
Pollen Non disponible.
Qualité de l'air Non disponible.
Flu Activity Non disponible.
METAR GMAD 311900Z 33004KT CAVOK 28/02 Q1015 NOSIG

More Conditions Fewer Conditions

Pression 29.98 pouce
Visibilité -9999.0 Miles terrestres
Nuages
Point de rosée 36 ° F
Humidité 19%
Précipitations 0.00 pouce
Profondeur de la couche neigeuse Non disponible.
UV Non disponible.
Pollen Non disponible.
Qualité de l'air Non disponible.
Flu Activity Non disponible.
METAR GMAD 311900Z 33004KT CAVOK 28/02 Q1015 NOSIG

More Conditions Fewer Conditions

10-Day Weather Forecast

Almanac

Astronomie

Oct. 31, 2014 Lever Coucher
Temps réel
Crépuscule civil
Crépuscule nautique
Crépuscule astronomique
Lune
Durée de lumière visible
Longueur du jour
Tomorrow will be .
, % of the Moon is Illuminated

Extrêmes aujourd'hui

Country Highs Country Lows

Community

WunderPhotos

Upload Photos

1,766,696 Photos téléchargées !

WunderBlogs® & News

Nearby

Qualité de l'air

  Qualité de l'air Indice de la qualité de l'air Polluant
Not available.

Épaisseur de neige

Station Depth Altitude

Activité sismique

Ville Distance Mag. Time & Date
Minimum magnitude displayed is 2.5.

Températures des eaux côtières

Lieu Température

Stations météo à proximité